sensor_id;sensor_type;location;lat;lon;timestamp;pressure;altitude;pressure_sealevel;temperature;humidity
38900;BME280;24660;43.238;26.576;2022-07-11T00:00:59;99016.31;;;17.54;100.00
38900;BME280;24660;43.238;26.576;2022-07-11T00:03:25;99021.97;;;17.67;100.00
38900;BME280;24660;43.238;26.576;2022-07-11T00:05:50;99015.97;;;17.57;100.00
38900;BME280;24660;43.238;26.576;2022-07-11T00:08:16;99031.78;;;17.37;100.00
38900;BME280;24660;43.238;26.576;2022-07-11T00:10:41;99029.75;;;17.39;100.00
38900;BME280;24660;43.238;26.576;2022-07-11T00:13:08;99031.25;;;17.42;100.00
38900;BME280;24660;43.238;26.576;2022-07-11T00:15:33;99033.47;;;17.38;100.00
38900;BME280;24660;43.238;26.576;2022-07-11T00:17:58;99030.59;;;17.40;100.00
38900;BME280;24660;43.238;26.576;2022-07-11T00:20:24;99038.97;;;17.22;100.00
38900;BME280;24660;43.238;26.576;2022-07-11T00:22:49;99043.44;;;16.99;100.00
38900;BME280;24660;43.238;26.576;2022-07-11T00:25:14;99038.59;;;16.94;100.00
38900;BME280;24660;43.238;26.576;2022-07-11T00:27:40;99036.06;;;16.84;100.00
38900;BME280;24660;43.238;26.576;2022-07-11T00:30:05;99045.34;;;16.90;100.00
38900;BME280;24660;43.238;26.576;2022-07-11T00:32:31;99035.06;;;16.85;100.00
38900;BME280;24660;43.238;26.576;2022-07-11T00:34:56;99026.84;;;17.18;100.00
38900;BME280;24660;43.238;26.576;2022-07-11T00:37:21;99034.06;;;17.26;100.00
38900;BME280;24660;43.238;26.576;2022-07-11T00:39:47;99033.84;;;17.35;100.00
38900;BME280;24660;43.238;26.576;2022-07-11T00:42:15;99038.91;;;17.30;100.00
38900;BME280;24660;43.238;26.576;2022-07-11T00:44:41;99022.41;;;17.25;100.00
38900;BME280;24660;43.238;26.576;2022-07-11T00:47:06;99037.88;;;17.00;100.00
38900;BME280;24660;43.238;26.576;2022-07-11T00:49:31;99040.34;;;17.18;100.00
38900;BME280;24660;43.238;26.576;2022-07-11T00:51:57;99034.84;;;17.03;100.00
38900;BME280;24660;43.238;26.576;2022-07-11T00:54:22;99041.28;;;16.94;100.00
38900;BME280;24660;43.238;26.576;2022-07-11T00:56:48;99045.72;;;16.79;100.00
38900;BME280;24660;43.238;26.576;2022-07-11T00:59:13;99054.00;;;16.69;100.00
38900;BME280;24660;43.238;26.576;2022-07-11T01:01:41;99050.44;;;16.60;100.00
38900;BME280;24660;43.238;26.576;2022-07-11T01:04:06;99056.03;;;16.75;100.00
38900;BME280;24660;43.238;26.576;2022-07-11T01:06:31;99044.66;;;16.96;100.00
38900;BME280;24660;43.238;26.576;2022-07-11T01:08:57;99041.78;;;16.98;100.00
38900;BME280;24660;43.238;26.576;2022-07-11T01:11:22;99044.16;;;17.32;100.00
38900;BME280;24660;43.238;26.576;2022-07-11T01:13:47;99028.16;;;17.53;99.92
38900;BME280;24660;43.238;26.576;2022-07-11T01:16:14;99029.75;;;17.39;98.63
38900;BME280;24660;43.238;26.576;2022-07-11T01:18:40;99037.47;;;17.19;98.99
38900;BME280;24660;43.238;26.576;2022-07-11T01:21:08;99042.69;;;17.21;99.27
38900;BME280;24660;43.238;26.576;2022-07-11T01:23:34;99051.66;;;17.13;97.56
38900;BME280;24660;43.238;26.576;2022-07-11T01:26:00;99051.31;;;17.16;98.18
38900;BME280;24660;43.238;26.576;2022-07-11T01:28:25;99047.94;;;17.14;99.59
38900;BME280;24660;43.238;26.576;2022-07-11T01:30:51;99051.38;;;17.00;99.95
38900;BME280;24660;43.238;26.576;2022-07-11T01:33:16;99051.41;;;16.92;100.00
38900;BME280;24660;43.238;26.576;2022-07-11T01:35:41;99051.72;;;16.97;100.00
38900;BME280;24660;43.238;26.576;2022-07-11T01:38:07;99056.19;;;16.74;100.00
38900;BME280;24660;43.238;26.576;2022-07-11T01:40:32;99057.69;;;16.84;100.00
38900;BME280;24660;43.238;26.576;2022-07-11T01:42:57;99057.00;;;16.82;100.00
38900;BME280;24660;43.238;26.576;2022-07-11T01:45:22;99056.19;;;16.57;100.00
38900;BME280;24660;43.238;26.576;2022-07-11T01:47:48;99061.75;;;16.56;100.00
38900;BME280;24660;43.238;26.576;2022-07-11T01:50:13;99061.44;;;16.51;100.00
38900;BME280;24660;43.238;26.576;2022-07-11T01:52:38;99060.59;;;16.50;100.00
38900;BME280;24660;43.238;26.576;2022-07-11T01:55:05;99056.22;;;16.41;100.00
38900;BME280;24660;43.238;26.576;2022-07-11T01:57:30;99061.59;;;16.57;100.00
38900;BME280;24660;43.238;26.576;2022-07-11T01:59:56;99052.84;;;16.47;100.00
38900;BME280;24660;43.238;26.576;2022-07-11T02:02:21;99063.63;;;16.63;100.00
38900;BME280;24660;43.238;26.576;2022-07-11T02:04:46;99070.34;;;16.59;100.00
38900;BME280;24660;43.238;26.576;2022-07-11T02:07:12;99072.03;;;16.60;100.00
38900;BME280;24660;43.238;26.576;2022-07-11T02:09:40;99076.25;;;16.47;100.00
38900;BME280;24660;43.238;26.576;2022-07-11T02:12:05;99072.09;;;16.36;100.00
38900;BME280;24660;43.238;26.576;2022-07-11T02:14:31;99070.22;;;16.53;100.00
38900;BME280;24660;43.238;26.576;2022-07-11T02:16:56;99071.88;;;16.54;100.00
38900;BME280;24660;43.238;26.576;2022-07-11T02:19:21;99062.44;;;16.58;100.00
38900;BME280;24660;43.238;26.576;2022-07-11T02:21:46;99061.28;;;16.36;100.00
38900;BME280;24660;43.238;26.576;2022-07-11T02:24:12;99064.16;;;16.51;100.00
38900;BME280;24660;43.238;26.576;2022-07-11T02:26:37;99063.31;;;16.50;100.00
38900;BME280;24660;43.238;26.576;2022-07-11T02:29:02;99061.78;;;16.40;100.00
38900;BME280;24660;43.238;26.576;2022-07-11T02:31:28;99068.53;;;16.36;100.00
38900;BME280;24660;43.238;26.576;2022-07-11T02:33:53;99080.34;;;16.18;100.00
38900;BME280;24660;43.238;26.576;2022-07-11T02:36:18;99077.81;;;16.17;100.00
38900;BME280;24660;43.238;26.576;2022-07-11T02:38:44;99080.84;;;16.38;100.00
38900;BME280;24660;43.238;26.576;2022-07-11T02:41:09;99081.16;;;16.43;100.00
38900;BME280;24660;43.238;26.576;2022-07-11T02:43:34;99083.88;;;16.35;100.00
38900;BME280;24660;43.238;26.576;2022-07-11T02:46:00;99086.75;;;16.25;100.00
38900;BME280;24660;43.238;26.576;2022-07-11T02:48:25;99087.22;;;16.45;100.00
38900;BME280;24660;43.238;26.576;2022-07-11T02:50:50;99085.72;;;16.43;100.00
38900;BME280;24660;43.238;26.576;2022-07-11T02:53:16;99086.59;;;16.35;100.00
38900;BME280;24660;43.238;26.576;2022-07-11T02:55:41;99087.59;;;16.26;100.00
38900;BME280;24660;43.238;26.576;2022-07-11T02:58:07;99095.00;;;15.99;100.00
38900;BME280;24660;43.238;26.576;2022-07-11T03:00:32;99102.91;;;15.77;100.00
38900;BME280;24660;43.238;26.576;2022-07-11T03:02:58;99114.81;;;15.74;100.00
38900;BME280;24660;43.238;26.576;2022-07-11T03:05:23;99115.72;;;15.91;100.00
38900;BME280;24660;43.238;26.576;2022-07-11T03:07:48;99116.06;;;15.96;100.00
38900;BME280;24660;43.238;26.576;2022-07-11T03:10:14;99120.97;;;16.09;100.00
38900;BME280;24660;43.238;26.576;2022-07-11T03:12:39;99115.72;;;15.99;100.00
38900;BME280;24660;43.238;26.576;2022-07-11T03:15:05;99112.34;;;15.97;100.00
38900;BME280;24660;43.238;26.576;2022-07-11T03:17:33;99102.59;;;15.96;100.00
38900;BME280;24660;43.238;26.576;2022-07-11T03:19:59;99106.44;;;16.01;100.00
38900;BME280;24660;43.238;26.576;2022-07-11T03:22:25;99107.00;;;16.21;100.00
38900;BME280;24660;43.238;26.576;2022-07-11T03:24:51;99105.28;;;16.12;100.00
38900;BME280;24660;43.238;26.576;2022-07-11T03:27:16;99114.53;;;16.18;100.00
38900;BME280;24660;43.238;26.576;2022-07-11T03:29:42;99119.59;;;16.13;100.00
38900;BME280;24660;43.238;26.576;2022-07-11T03:32:07;99120.47;;;16.21;100.00
38900;BME280;24660;43.238;26.576;2022-07-11T03:34:33;99120.63;;;16.28;100.00
38900;BME280;24660;43.238;26.576;2022-07-11T03:36:59;99126.16;;;16.18;100.00
38900;BME280;24660;43.238;26.576;2022-07-11T03:39:24;99131.25;;;16.21;100.00
38900;BME280;24660;43.238;26.576;2022-07-11T03:41:50;99141.34;;;16.11;100.00
38900;BME280;24660;43.238;26.576;2022-07-11T03:44:15;99150.31;;;16.36;100.00
38900;BME280;24660;43.238;26.576;2022-07-11T03:46:40;99150.81;;;16.40;100.00
38900;BME280;24660;43.238;26.576;2022-07-11T03:49:05;99152.34;;;16.34;100.00
38900;BME280;24660;43.238;26.576;2022-07-11T03:51:31;99152.47;;;16.32;100.00
38900;BME280;24660;43.238;26.576;2022-07-11T03:53:56;99157.53;;;16.27;100.00
38900;BME280;24660;43.238;26.576;2022-07-11T03:56:21;99162.59;;;16.22;100.00
38900;BME280;24660;43.238;26.576;2022-07-11T03:58:48;99159.72;;;16.32;100.00
38900;BME280;24660;43.238;26.576;2022-07-11T04:01:14;99156.03;;;16.57;100.00
38900;BME280;24660;43.238;26.576;2022-07-11T04:03:40;99163.97;;;16.35;100.00
38900;BME280;24660;43.238;26.576;2022-07-11T04:06:06;99164.78;;;16.59;100.00
38900;BME280;24660;43.238;26.576;2022-07-11T04:08:31;99164.84;;;16.68;99.31
38900;BME280;24660;43.238;26.576;2022-07-11T04:10:57;99176.59;;;16.58;99.35
38900;BME280;24660;43.238;26.576;2022-07-11T04:13:22;99167.69;;;16.74;98.70
38900;BME280;24660;43.238;26.576;2022-07-11T04:15:47;99166.84;;;16.74;97.64
38900;BME280;24660;43.238;26.576;2022-07-11T04:18:13;99184.41;;;16.78;98.32
38900;BME280;24660;43.238;26.576;2022-07-11T04:20:38;99176.63;;;16.91;95.73
38900;BME280;24660;43.238;26.576;2022-07-11T04:23:04;99182.34;;;17.04;95.69
38900;BME280;24660;43.238;26.576;2022-07-11T04:25:30;99183.72;;;16.84;95.68
38900;BME280;24660;43.238;26.576;2022-07-11T04:27:55;99187.72;;;17.20;93.96
38900;BME280;24660;43.238;26.576;2022-07-11T04:30:20;99188.41;;;16.98;95.89
38900;BME280;24660;43.238;26.576;2022-07-11T04:32:46;99189.78;;;16.94;96.88
38900;BME280;24660;43.238;26.576;2022-07-11T04:35:11;99198.47;;;17.29;95.44
38900;BME280;24660;43.238;26.576;2022-07-11T04:37:36;99197.50;;;17.21;95.82
38900;BME280;24660;43.238;26.576;2022-07-11T04:40:02;99197.75;;;17.43;95.02
38900;BME280;24660;43.238;26.576;2022-07-11T04:42:27;99201.22;;;17.68;95.10
38900;BME280;24660;43.238;26.576;2022-07-11T04:44:52;99200.69;;;17.80;92.46
38900;BME280;24660;43.238;26.576;2022-07-11T04:47:18;99204.63;;;17.62;92.32
38900;BME280;24660;43.238;26.576;2022-07-11T04:49:44;99193.44;;;17.81;91.24
38900;BME280;24660;43.238;26.576;2022-07-11T04:52:12;99203.13;;;17.98;90.39
38900;BME280;24660;43.238;26.576;2022-07-11T04:54:37;99192.97;;;17.61;91.93
38900;BME280;24660;43.238;26.576;2022-07-11T04:57:05;99201.06;;;17.69;92.12
38900;BME280;24660;43.238;26.576;2022-07-11T04:59:31;99200.59;;;17.97;92.24
38900;BME280;24660;43.238;26.576;2022-07-11T05:01:57;99204.25;;;17.81;89.72
38900;BME280;24660;43.238;26.576;2022-07-11T05:04:22;99214.09;;;17.58;91.87
38900;BME280;24660;43.238;26.576;2022-07-11T05:06:48;99207.66;;;17.75;91.80
38900;BME280;24660;43.238;26.576;2022-07-11T05:09:13;99207.31;;;18.09;91.66
38900;BME280;24660;43.238;26.576;2022-07-11T05:11:39;99202.00;;;18.16;90.02
38900;BME280;24660;43.238;26.576;2022-07-11T05:14:04;99194.81;;;17.77;90.34
38900;BME280;24660;43.238;26.576;2022-07-11T05:16:29;99197.16;;;18.11;89.23
38900;BME280;24660;43.238;26.576;2022-07-11T05:18:54;99195.72;;;18.23;88.89
38900;BME280;24660;43.238;26.576;2022-07-11T05:21:20;99199.59;;;18.52;88.79
38900;BME280;24660;43.238;26.576;2022-07-11T05:23:48;99196.81;;;18.60;87.26
38900;BME280;24660;43.238;26.576;2022-07-11T05:26:13;99187.44;;;18.71;86.80
38900;BME280;24660;43.238;26.576;2022-07-11T05:28:39;99189.25;;;18.32;87.29
38900;BME280;24660;43.238;26.576;2022-07-11T05:31:05;99204.41;;;18.10;88.32
38900;BME280;24660;43.238;26.576;2022-07-11T05:33:30;99198.38;;;18.31;86.83
38900;BME280;24660;43.238;26.576;2022-07-11T05:35:55;99200.31;;;18.68;85.88
38900;BME280;24660;43.238;26.576;2022-07-11T05:38:20;99199.84;;;18.11;85.40
38900;BME280;24660;43.238;26.576;2022-07-11T05:40:46;99206.25;;;18.18;85.80
38900;BME280;24660;43.238;26.576;2022-07-11T05:43:11;99200.56;;;18.05;85.00
38900;BME280;24660;43.238;26.576;2022-07-11T05:45:36;99202.53;;;18.19;84.79
38900;BME280;24660;43.238;26.576;2022-07-11T05:48:02;99197.38;;;18.32;83.76
38900;BME280;24660;43.238;26.576;2022-07-11T05:50:27;99200.84;;;18.41;83.38
38900;BME280;24660;43.238;26.576;2022-07-11T05:52:52;99197.31;;;18.63;83.04
38900;BME280;24660;43.238;26.576;2022-07-11T05:55:18;99201.06;;;18.54;83.09
38900;BME280;24660;43.238;26.576;2022-07-11T05:57:43;99205.41;;;18.40;82.64
38900;BME280;24660;43.238;26.576;2022-07-11T06:00:08;99205.13;;;18.35;82.71
38900;BME280;24660;43.238;26.576;2022-07-11T06:02:34;99200.19;;;18.39;83.31
38900;BME280;24660;43.238;26.576;2022-07-11T06:04:59;99202.44;;;18.27;84.45
38900;BME280;24660;43.238;26.576;2022-07-11T06:07:24;99219.00;;;18.32;85.05
38900;BME280;24660;43.238;26.576;2022-07-11T06:10:05;99217.13;;;18.64;83.87
38900;BME280;24660;43.238;26.576;2022-07-11T06:12:31;99224.59;;;18.99;83.31
38900;BME280;24660;43.238;26.576;2022-07-11T06:14:56;99228.94;;;18.86;82.72
38900;BME280;24660;43.238;26.576;2022-07-11T06:17:22;99236.91;;;18.64;83.66
38900;BME280;24660;43.238;26.576;2022-07-11T06:19:47;99235.50;;;18.91;84.51
38900;BME280;24660;43.238;26.576;2022-07-11T06:22:13;99246.13;;;18.78;83.60
38900;BME280;24660;43.238;26.576;2022-07-11T06:24:39;99251.47;;;18.86;83.90
38900;BME280;24660;43.238;26.576;2022-07-11T06:27:04;99243.50;;;19.08;83.56
38900;BME280;24660;43.238;26.576;2022-07-11T06:29:32;99248.22;;;19.43;80.93
38900;BME280;24660;43.238;26.576;2022-07-11T06:31:57;99250.78;;;19.60;79.49
38900;BME280;24660;43.238;26.576;2022-07-11T06:34:22;99251.06;;;19.12;80.98
38900;BME280;24660;43.238;26.576;2022-07-11T06:36:47;99249.59;;;19.39;81.37
38900;BME280;24660;43.238;26.576;2022-07-11T06:39:13;99253.53;;;19.37;81.50
38900;BME280;24660;43.238;26.576;2022-07-11T06:41:38;99241.28;;;19.26;81.61
38900;BME280;24660;43.238;26.576;2022-07-11T06:44:04;99259.19;;;19.65;81.48
38900;BME280;24660;43.238;26.576;2022-07-11T06:46:29;99264.25;;;19.68;78.88
38900;BME280;24660;43.238;26.576;2022-07-11T06:48:54;99264.88;;;19.70;78.90
38900;BME280;24660;43.238;26.576;2022-07-11T06:51:20;99271.66;;;19.36;80.79
38900;BME280;24660;43.238;26.576;2022-07-11T06:53:47;99268.44;;;19.55;80.86
38900;BME280;24660;43.238;26.576;2022-07-11T06:56:12;99267.72;;;19.76;79.49
38900;BME280;24660;43.238;26.576;2022-07-11T06:58:37;99278.81;;;20.11;77.59
38900;BME280;24660;43.238;26.576;2022-07-11T07:01:03;99278.38;;;19.93;77.87
38900;BME280;24660;43.238;26.576;2022-07-11T07:03:29;99277.00;;;20.48;76.98
38900;BME280;24660;43.238;26.576;2022-07-11T07:05:55;99277.72;;;20.78;74.71
38900;BME280;24660;43.238;26.576;2022-07-11T07:08:22;99288.09;;;20.89;73.21
38900;BME280;24660;43.238;26.576;2022-07-11T07:10:48;99295.59;;;20.87;73.81
38900;BME280;24660;43.238;26.576;2022-07-11T07:13:14;99285.34;;;20.67;75.55
38900;BME280;24660;43.238;26.576;2022-07-11T07:15:39;99286.59;;;20.65;73.80
38900;BME280;24660;43.238;26.576;2022-07-11T07:18:04;99291.31;;;20.27;72.15
38900;BME280;24660;43.238;26.576;2022-07-11T07:20:30;99285.13;;;20.84;72.02
38900;BME280;24660;43.238;26.576;2022-07-11T07:22:55;99289.25;;;21.50;69.94
38900;BME280;24660;43.238;26.576;2022-07-11T07:25:20;99287.69;;;21.62;68.84
38900;BME280;24660;43.238;26.576;2022-07-11T07:27:46;99288.34;;;21.15;69.87
38900;BME280;24660;43.238;26.576;2022-07-11T07:30:11;99288.03;;;21.53;68.71
38900;BME280;24660;43.238;26.576;2022-07-11T07:32:39;99295.16;;;21.82;66.95
38900;BME280;24660;43.238;26.576;2022-07-11T07:35:04;99283.00;;;21.50;65.47
38900;BME280;24660;43.238;26.576;2022-07-11T07:37:29;99293.50;;;22.22;64.38
38900;BME280;24660;43.238;26.576;2022-07-11T07:39:55;99288.53;;;21.98;63.14
38900;BME280;24660;43.238;26.576;2022-07-11T07:42:20;99292.63;;;22.15;63.06
38900;BME280;24660;43.238;26.576;2022-07-11T07:44:45;99294.22;;;22.50;62.30
38900;BME280;24660;43.238;26.576;2022-07-11T07:47:10;99302.00;;;22.54;62.68
38900;BME280;24660;43.238;26.576;2022-07-11T07:49:36;99291.38;;;22.72;61.52
38900;BME280;24660;43.238;26.576;2022-07-11T07:52:01;99299.59;;;22.85;60.84
38900;BME280;24660;43.238;26.576;2022-07-11T07:54:27;99285.53;;;22.81;61.14
38900;BME280;24660;43.238;26.576;2022-07-11T07:56:52;99293.31;;;22.30;62.26
38900;BME280;24660;43.238;26.576;2022-07-11T07:59:17;99302.38;;;23.12;61.28
38900;BME280;24660;43.238;26.576;2022-07-11T08:01:42;99304.47;;;23.36;61.30
38900;BME280;24660;43.238;26.576;2022-07-11T08:04:10;99298.84;;;22.50;61.60
38900;BME280;24660;43.238;26.576;2022-07-11T08:06:37;99289.59;;;22.44;61.89
38900;BME280;24660;43.238;26.576;2022-07-11T08:09:03;99299.84;;;23.03;60.15
38900;BME280;24660;43.238;26.576;2022-07-11T08:11:29;99297.13;;;22.97;59.17
38900;BME280;24660;43.238;26.576;2022-07-11T08:13:55;99292.28;;;23.05;59.15
38900;BME280;24660;43.238;26.576;2022-07-11T08:16:20;99301.00;;;22.68;59.60
38900;BME280;24660;43.238;26.576;2022-07-11T08:18:46;99298.13;;;22.28;59.62
38900;BME280;24660;43.238;26.576;2022-07-11T08:21:11;99303.78;;;22.81;59.32
38900;BME280;24660;43.238;26.576;2022-07-11T08:23:36;99306.03;;;22.71;59.03
38900;BME280;24660;43.238;26.576;2022-07-11T08:26:02;99305.19;;;22.70;58.45
38900;BME280;24660;43.238;26.576;2022-07-11T08:28:28;99298.25;;;22.55;58.20
38900;BME280;24660;43.238;26.576;2022-07-11T08:30:53;99306.16;;;23.10;59.02
38900;BME280;24660;43.238;26.576;2022-07-11T08:33:18;99306.78;;;23.72;57.90
38900;BME280;24660;43.238;26.576;2022-07-11T08:35:44;99310.75;;;23.89;55.76
38900;BME280;24660;43.238;26.576;2022-07-11T08:38:09;99304.47;;;23.56;55.92
38900;BME280;24660;43.238;26.576;2022-07-11T08:40:34;99313.06;;;23.00;57.67
38900;BME280;24660;43.238;26.576;2022-07-11T08:42:59;99309.41;;;22.73;59.24
38900;BME280;24660;43.238;26.576;2022-07-11T08:45:30;99321.13;;;22.67;59.81
38900;BME280;24660;43.238;26.576;2022-07-11T08:47:56;99316.69;;;22.66;59.01
38900;BME280;24660;43.238;26.576;2022-07-11T08:50:22;99315.50;;;22.81;59.97
38900;BME280;24660;43.238;26.576;2022-07-11T08:52:47;99315.78;;;23.00;58.24
38900;BME280;24660;43.238;26.576;2022-07-11T08:55:13;99319.28;;;22.80;57.10
38900;BME280;24660;43.238;26.576;2022-07-11T08:57:38;99315.91;;;22.78;59.34
38900;BME280;24660;43.238;26.576;2022-07-11T09:00:04;99316.66;;;23.40;57.51
38900;BME280;24660;43.238;26.576;2022-07-11T09:02:32;99318.75;;;23.51;57.23
38900;BME280;24660;43.238;26.576;2022-07-11T09:04:57;99317.47;;;23.21;56.23
38900;BME280;24660;43.238;26.576;2022-07-11T09:07:23;99318.13;;;23.82;55.87
38900;BME280;24660;43.238;26.576;2022-07-11T09:09:48;99313.13;;;23.66;54.50
38900;BME280;24660;43.238;26.576;2022-07-11T09:12:15;99314.06;;;24.05;53.17
38900;BME280;24660;43.238;26.576;2022-07-11T09:14:45;99314.56;;;23.68;52.65
38900;BME280;24660;43.238;26.576;2022-07-11T09:17:10;99309.31;;;23.67;52.79
38900;BME280;24660;43.238;26.576;2022-07-11T09:19:36;99312.03;;;23.74;52.08
38900;BME280;24660;43.238;26.576;2022-07-11T09:22:06;99313.13;;;23.66;51.25
38900;BME280;24660;43.238;26.576;2022-07-11T09:27:43;99312.25;;;23.39;52.92
38900;BME280;24660;43.238;26.576;2022-07-11T09:30:17;99297.75;;;23.45;52.13
38900;BME280;24660;43.238;26.576;2022-07-11T09:35:25;99313.53;;;24.85;51.70
38900;BME280;24660;43.238;26.576;2022-07-11T09:37:51;99316.66;;;24.96;51.91
38900;BME280;24660;43.238;26.576;2022-07-11T09:40:16;99308.47;;;24.89;51.01
38900;BME280;24660;43.238;26.576;2022-07-11T09:42:46;99302.22;;;25.20;51.88
38900;BME280;24660;43.238;26.576;2022-07-11T09:45:12;99306.22;;;24.79;50.75
38900;BME280;24660;43.238;26.576;2022-07-11T09:47:45;99301.66;;;25.36;50.48
38900;BME280;24660;43.238;26.576;2022-07-11T09:50:11;99314.59;;;25.23;49.57
38900;BME280;24660;43.238;26.576;2022-07-11T09:52:36;99304.97;;;25.13;49.23
38900;BME280;24660;43.238;26.576;2022-07-11T09:55:02;99298.53;;;25.01;49.46
38900;BME280;24660;43.238;26.576;2022-07-11T09:57:29;99303.41;;;24.93;49.27
38900;BME280;24660;43.238;26.576;2022-07-11T09:59:55;99301.53;;;23.84;52.33
38900;BME280;24660;43.238;26.576;2022-07-11T10:02:20;99305.72;;;23.33;53.09
38900;BME280;24660;43.238;26.576;2022-07-11T10:04:46;99308.00;;;22.90;54.09
38900;BME280;24660;43.238;26.576;2022-07-11T10:07:11;99300.69;;;23.63;52.63
38900;BME280;24660;43.238;26.576;2022-07-11T10:09:36;99303.31;;;24.36;51.10
38900;BME280;24660;43.238;26.576;2022-07-11T10:12:02;99313.13;;;23.66;51.79
38900;BME280;24660;43.238;26.576;2022-07-11T10:14:27;99293.94;;;23.92;50.66
38900;BME280;24660;43.238;26.576;2022-07-11T10:16:57;99301.81;;;24.20;50.06
38900;BME280;24660;43.238;26.576;2022-07-11T10:22:09;99300.81;;;24.15;48.98
38900;BME280;24660;43.238;26.576;2022-07-11T10:24:52;99301.69;;;24.60;48.50
38900;BME280;24660;43.238;26.576;2022-07-11T10:27:29;99311.50;;;24.74;48.21
38900;BME280;24660;43.238;26.576;2022-07-11T10:29:58;99296.84;;;25.07;46.15
38900;BME280;24660;43.238;26.576;2022-07-11T10:32:24;99303.09;;;24.31;49.33
38900;BME280;24660;43.238;26.576;2022-07-11T10:37:30;99301.34;;;24.50;47.92
38900;BME280;24660;43.238;26.576;2022-07-11T10:39:56;99308.78;;;24.23;48.77
38900;BME280;24660;43.238;26.576;2022-07-11T10:42:22;99318.53;;;24.57;49.10
38900;BME280;24660;43.238;26.576;2022-07-11T10:49:54;99309.03;;;24.08;50.41
38900;BME280;24660;43.238;26.576;2022-07-11T10:52:21;99317.34;;;24.84;49.42
38900;BME280;24660;43.238;26.576;2022-07-11T10:54:58;99309.97;;;25.23;48.04
38900;BME280;24660;43.238;26.576;2022-07-11T10:57:38;99310.69;;;25.12;47.55
38900;BME280;24660;43.238;26.576;2022-07-11T11:00:07;99313.00;;;24.70;47.46
38900;BME280;24660;43.238;26.576;2022-07-11T11:05:17;99299.72;;;25.12;46.73
38900;BME280;24660;43.238;26.576;2022-07-11T11:08:01;99289.31;;;25.27;44.78
38900;BME280;24660;43.238;26.576;2022-07-11T11:13:11;99292.84;;;25.34;45.40
38900;BME280;24660;43.238;26.576;2022-07-11T11:15:40;99292.66;;;25.29;43.65
38900;BME280;24660;43.238;26.576;2022-07-11T11:20:47;99295.50;;;25.66;44.33
38900;BME280;24660;43.238;26.576;2022-07-11T11:23:12;99298.91;;;25.11;44.37
38900;BME280;24660;43.238;26.576;2022-07-11T11:25:48;99293.53;;;24.53;44.03
38900;BME280;24660;43.238;26.576;2022-07-11T11:28:19;99293.53;;;24.53;45.48
38900;BME280;24660;43.238;26.576;2022-07-11T11:30:52;99295.22;;;25.24;43.65
38900;BME280;24660;43.238;26.576;2022-07-11T11:33:17;99288.28;;;25.71;42.22
38900;BME280;24660;43.238;26.576;2022-07-11T11:35:42;99310.66;;;25.68;42.00
38900;BME280;24660;43.238;26.576;2022-07-11T11:38:08;99304.00;;;25.83;40.90
38900;BME280;24660;43.238;26.576;2022-07-11T11:40:34;99316.19;;;26.05;41.99
38900;BME280;24660;43.238;26.576;2022-07-11T11:42:59;99300.03;;;25.79;40.97
38900;BME280;24660;43.238;26.576;2022-07-11T11:45:25;99299.34;;;26.01;40.89
38900;BME280;24660;43.238;26.576;2022-07-11T11:47:50;99307.09;;;25.86;40.48
38900;BME280;24660;43.238;26.576;2022-07-11T11:50:16;99297.72;;;25.75;41.10
38900;BME280;24660;43.238;26.576;2022-07-11T11:52:41;99298.06;;;25.86;40.74
38900;BME280;24660;43.238;26.576;2022-07-11T11:55:07;99301.50;;;26.54;39.30
38900;BME280;24660;43.238;26.576;2022-07-11T11:57:34;99304.19;;;26.73;39.59
38900;BME280;24660;43.238;26.576;2022-07-11T11:59:59;99295.00;;;25.75;40.90
38900;BME280;24660;43.238;26.576;2022-07-11T12:02:26;99303.69;;;25.66;41.30
38900;BME280;24660;43.238;26.576;2022-07-11T12:04:52;99301.34;;;25.76;39.91
38900;BME280;24660;43.238;26.576;2022-07-11T12:07:21;99296.16;;;25.61;40.21
38900;BME280;24660;43.238;26.576;2022-07-11T12:09:49;99305.69;;;26.20;38.34
38900;BME280;24660;43.238;26.576;2022-07-11T12:12:19;99295.28;;;25.42;39.26
38900;BME280;24660;43.238;26.576;2022-07-11T12:15:00;99301.44;;;25.38;39.36
38900;BME280;24660;43.238;26.576;2022-07-11T12:17:26;99296.94;;;26.12;39.17
38900;BME280;24660;43.238;26.576;2022-07-11T12:19:52;99310.84;;;26.95;36.18
38900;BME280;24660;43.238;26.576;2022-07-11T12:22:17;99310.41;;;28.22;34.38
38900;BME280;24660;43.238;26.576;2022-07-11T12:24:47;99295.41;;;27.77;34.23
38900;BME280;24660;43.238;26.576;2022-07-11T12:27:16;99300.06;;;28.52;32.91
38900;BME280;24660;43.238;26.576;2022-07-11T12:29:42;99305.25;;;28.77;33.49
38900;BME280;24660;43.238;26.576;2022-07-11T12:32:11;99306.22;;;29.28;32.67
38900;BME280;24660;43.238;26.576;2022-07-11T12:37:06;99296.31;;;28.18;32.17
38900;BME280;24660;43.238;26.576;2022-07-11T12:39:33;99303.78;;;26.87;32.39
38900;BME280;24660;43.238;26.576;2022-07-11T12:41:59;99299.47;;;26.80;33.57
38900;BME280;24660;43.238;26.576;2022-07-11T12:44:32;99301.13;;;27.64;32.46
38900;BME280;24660;43.238;26.576;2022-07-11T12:47:13;99299.44;;;29.02;31.12
38900;BME280;24660;43.238;26.576;2022-07-11T12:49:39;99301.00;;;28.29;31.36
38900;BME280;24660;43.238;26.576;2022-07-11T12:52:09;99295.22;;;29.62;29.84
38900;BME280;24660;43.238;26.576;2022-07-11T12:54:34;99301.00;;;30.81;28.81
38900;BME280;24660;43.238;26.576;2022-07-11T12:57:00;99293.00;;;29.97;29.13
38900;BME280;24660;43.238;26.576;2022-07-11T12:59:27;99291.94;;;29.98;29.97
38900;BME280;24660;43.238;26.576;2022-07-11T13:01:54;99291.41;;;28.44;30.19
38900;BME280;24660;43.238;26.576;2022-07-11T13:04:39;99286.00;;;28.25;30.53
38900;BME280;24660;43.238;26.576;2022-07-11T13:10:01;99294.91;;;28.56;30.14
38900;BME280;24660;43.238;26.576;2022-07-11T13:12:27;99293.53;;;28.42;30.49